createdAt,value
2023-03-15T02:57:08.136Z,0.70
2023-03-15T02:59:34.513Z,0.40
2023-03-15T03:02:01.208Z,0.98
2023-03-15T03:04:28.055Z,0.95
2023-03-15T03:06:59.007Z,1.08
2023-03-15T03:09:25.864Z,0.68
2023-03-15T03:11:52.359Z,0.60
2023-03-15T03:14:18.768Z,1.10
2023-03-15T03:16:45.304Z,1.20
2023-03-15T03:19:14.112Z,1.00
2023-03-15T03:21:43.341Z,1.58
2023-03-15T03:24:11.045Z,1.63
2023-03-15T03:26:38.207Z,1.80
2023-03-15T03:29:05.789Z,1.23
2023-03-15T03:31:34.901Z,1.42
2023-03-15T03:34:01.538Z,1.42
2023-03-15T03:36:27.933Z,1.75
2023-03-15T03:38:54.812Z,1.42
2023-03-15T03:41:23.523Z,2.20
2023-03-15T03:43:53.128Z,2.33
2023-03-15T03:46:22.248Z,2.00
2023-03-15T03:48:48.930Z,1.75
2023-03-15T03:51:15.316Z,1.15
2023-03-15T03:53:41.903Z,1.15
2023-03-15T03:56:08.711Z,2.17
2023-03-15T03:58:37.563Z,2.10
2023-03-15T04:01:07.143Z,1.60
2023-03-15T04:03:33.649Z,1.80
2023-03-15T04:06:01.424Z,1.92
2023-03-15T04:08:28.104Z,2.20
2023-03-15T04:10:57.130Z,1.98
2023-03-15T04:13:24.738Z,1.85
2023-03-15T04:15:52.090Z,1.80
2023-03-15T04:18:18.703Z,1.95
2023-03-15T04:20:50.290Z,2.10
2023-03-15T04:23:19.635Z,2.17
2023-03-15T04:25:50.186Z,1.95
2023-03-15T04:28:17.275Z,1.95
2023-03-15T04:30:44.572Z,1.85
2023-03-15T04:33:11.309Z,1.45
2023-03-15T04:35:39.207Z,2.42
2023-03-15T04:38:06.682Z,2.33
2023-03-15T04:40:35.154Z,2.67
2023-03-15T04:43:04.497Z,2.30
2023-03-15T04:45:33.910Z,2.67
2023-03-15T04:48:01.750Z,2.28
2023-03-15T04:50:29.994Z,3.47
2023-03-15T04:52:58.789Z,2.40
2023-03-15T04:55:25.372Z,2.78
2023-03-15T04:57:52.862Z,2.60
2023-03-15T05:00:23.348Z,2.55
2023-03-15T05:02:54.965Z,2.47
2023-03-15T05:05:25.368Z,2.30
2023-03-15T05:07:51.833Z,2.45
2023-03-15T05:10:18.538Z,2.60
2023-03-15T05:12:47.161Z,2.50
2023-03-15T05:15:13.878Z,2.78
2023-03-15T05:17:40.335Z,2.72
2023-03-15T05:20:11.835Z,3.20
2023-03-15T05:22:38.932Z,2.03
2023-03-15T05:25:05.836Z,2.50
2023-03-15T05:27:34.438Z,2.80
2023-03-15T05:30:04.023Z,2.92
2023-03-15T05:32:34.496Z,2.38
2023-03-15T05:35:02.217Z,2.65
2023-03-15T05:37:29.023Z,2.83
2023-03-15T05:39:55.997Z,3.05
2023-03-15T05:42:26.172Z,2.10
2023-03-15T05:44:57.160Z,2.88
2023-03-15T05:47:23.901Z,2.65
2023-03-15T05:49:53.420Z,2.78
2023-03-15T05:52:19.943Z,2.50
2023-03-15T05:54:46.377Z,3.15
2023-03-15T05:57:12.925Z,1.90
2023-03-15T05:59:39.469Z,2.72
2023-03-15T06:02:06.366Z,2.67
2023-03-15T06:04:36.527Z,3.20
2023-03-15T06:07:05.166Z,3.05
2023-03-15T06:09:34.437Z,2.38
2023-03-15T06:12:05.485Z,2.60
2023-03-15T06:14:32.057Z,2.40
2023-03-15T06:16:58.619Z,4.03
2023-03-15T06:19:25.208Z,2.67
2023-03-15T06:21:51.580Z,2.78
2023-03-15T06:24:18.013Z,2.45
2023-03-15T06:26:44.524Z,2.47
2023-03-15T06:29:11.027Z,2.78
2023-03-15T06:31:39.754Z,2.50
2023-03-15T06:34:06.437Z,2.75
2023-03-15T06:36:32.948Z,3.35
2023-03-15T06:38:59.403Z,1.95
2023-03-15T06:41:26.922Z,2.67
2023-03-15T06:43:53.648Z,2.80
2023-03-15T06:46:20.367Z,2.65
2023-03-15T06:48:46.860Z,2.17
2023-03-15T06:51:13.361Z,3.10
2023-03-15T06:53:40.266Z,3.55
2023-03-15T06:56:09.546Z,3.08
2023-03-15T06:58:36.121Z,2.63
2023-03-15T07:01:02.919Z,2.85
2023-03-15T07:03:29.617Z,3.40
2023-03-15T07:05:56.248Z,2.92
2023-03-15T07:08:25.559Z,2.65
2023-03-15T07:10:52.500Z,2.30
2023-03-15T07:13:19.851Z,2.45
2023-03-15T07:15:48.730Z,2.88
2023-03-15T07:18:20.280Z,2.70
2023-03-15T07:20:49.002Z,2.57
2023-03-15T07:23:15.360Z,3.00
2023-03-15T07:25:54.346Z,2.17
2023-03-15T07:28:23.194Z,2.35
2023-03-15T07:30:58.513Z,1.75
2023-03-15T07:33:26.762Z,2.05
2023-03-15T07:35:56.115Z,1.98
2023-03-15T07:38:31.035Z,2.78
2023-03-15T07:40:58.271Z,2.60
2023-03-15T07:43:24.744Z,2.53
2023-03-15T07:45:51.255Z,1.80
2023-03-15T07:48:17.753Z,2.13
2023-03-15T07:50:45.591Z,2.00
2023-03-15T07:53:14.404Z,2.40
2023-03-15T07:55:40.872Z,2.80
2023-03-15T07:58:07.404Z,2.30
2023-03-15T08:00:38.763Z,2.13
2023-03-15T08:03:08.351Z,2.35
2023-03-15T08:05:37.672Z,2.75
2023-03-15T08:08:04.779Z,2.75
2023-03-15T08:10:31.575Z,2.58
2023-03-15T08:13:00.688Z,2.38
2023-03-15T08:15:29.682Z,2.58
2023-03-15T08:17:56.148Z,2.60
2023-03-15T08:20:22.550Z,2.83
2023-03-15T08:22:49.906Z,3.63
2023-03-15T08:25:18.941Z,2.38
2023-03-15T08:27:45.469Z,2.28
2023-03-15T08:30:14.154Z,2.28
2023-03-15T08:32:42.537Z,2.80
2023-03-15T08:35:15.653Z,1.90
2023-03-15T08:37:47.758Z,3.00
2023-03-15T08:40:16.320Z,2.38
2023-03-15T08:42:42.916Z,3.30
2023-03-15T08:45:10.131Z,5.68
2023-03-15T08:47:37.346Z,4.50
2023-03-15T08:50:07.071Z,3.80
2023-03-15T08:52:33.964Z,4.07
2023-03-15T08:55:01.097Z,3.53
2023-03-15T08:57:28.877Z,2.92
2023-03-15T08:59:56.259Z,2.72
2023-03-15T09:02:23.533Z,4.00
2023-03-15T09:04:52.394Z,4.05
2023-03-15T09:07:21.778Z,4.07
2023-03-15T09:09:48.700Z,2.55
2023-03-15T09:12:18.237Z,3.45
2023-03-15T09:14:45.016Z,2.42
2023-03-15T09:17:11.582Z,2.15
2023-03-15T09:19:41.329Z,2.13
2023-03-15T09:22:23.414Z,2.78
2023-03-15T09:24:52.437Z,2.30
2023-03-15T09:27:19.300Z,2.17
2023-03-15T09:29:45.676Z,2.65
2023-03-15T09:32:12.368Z,2.30
2023-03-15T09:34:41.802Z,2.50
2023-03-15T09:37:09.115Z,3.72
2023-03-15T09:39:35.513Z,2.80
2023-03-15T09:42:13.735Z,2.63
2023-03-15T09:44:48.265Z,2.55
2023-03-15T09:47:14.808Z,2.67
2023-03-15T09:49:52.122Z,2.45
2023-03-15T09:52:28.771Z,2.38
2023-03-15T09:55:12.864Z,2.40
2023-03-15T09:57:45.218Z,2.15
2023-03-15T10:00:17.580Z,1.92
2023-03-15T10:05:31.430Z,2.10
2023-03-15T10:07:57.983Z,2.15
2023-03-15T10:10:36.280Z,3.17
2023-03-15T10:13:19.551Z,2.78
2023-03-15T10:16:07.060Z,2.33
2023-03-15T10:18:59.182Z,2.22
2023-03-15T10:21:49.415Z,2.45
2023-03-15T10:24:33.878Z,2.85
2023-03-15T10:27:14.296Z,2.35
2023-03-15T10:29:40.822Z,2.85
2023-03-15T10:32:17.763Z,2.67
2023-03-15T10:34:53.437Z,2.58
2023-03-15T10:37:20.266Z,2.65
2023-03-15T10:39:55.485Z,2.65
2023-03-15T10:42:30.964Z,2.58
2023-03-15T10:45:01.426Z,3.03
2023-03-15T10:47:28.418Z,1.98
2023-03-15T10:49:59.488Z,2.22
2023-03-15T10:52:39.313Z,2.20
2023-03-15T10:55:15.008Z,2.65
2023-03-15T10:57:56.220Z,2.28
2023-03-15T11:00:23.989Z,2.50
2023-03-15T11:02:52.617Z,2.05
2023-03-15T11:05:19.975Z,3.08
2023-03-15T11:07:57.128Z,2.35
2023-03-15T11:10:34.293Z,1.83
2023-03-15T11:13:20.573Z,3.67
2023-03-15T11:15:54.572Z,1.85
2023-03-15T11:18:28.884Z,2.20
2023-03-15T11:20:57.342Z,1.75
2023-03-15T11:23:28.396Z,2.58
2023-03-15T11:25:57.185Z,1.90
2023-03-15T11:28:28.331Z,1.85
2023-03-15T11:30:59.755Z,1.80
2023-03-15T11:33:43.987Z,1.77
2023-03-15T11:36:21.830Z,2.05
2023-03-15T11:38:50.853Z,1.63
2023-03-15T11:41:27.707Z,2.05
2023-03-15T11:44:34.092Z,1.77
2023-03-15T11:47:09.638Z,1.75
2023-03-15T11:49:53.488Z,1.27
2023-03-15T11:54:26.353Z,1.10
2023-03-15T12:00:34.709Z,1.75
2023-03-15T12:03:34.444Z,2.40
2023-03-15T12:08:19.630Z,2.05
2023-03-15T12:10:48.131Z,2.30
2023-03-15T12:13:22.329Z,2.70
2023-03-15T12:15:52.657Z,1.80
2023-03-15T12:18:22.378Z,2.58
2023-03-15T12:21:07.498Z,2.10
2023-03-15T12:23:56.356Z,2.00
2023-03-15T12:26:31.037Z,1.85
2023-03-15T12:29:00.628Z,2.40
2023-03-15T12:31:46.111Z,1.80
2023-03-15T12:34:27.913Z,1.70
2023-03-15T12:37:01.148Z,2.35
2023-03-15T12:39:46.985Z,1.88
2023-03-15T12:42:36.217Z,2.25
2023-03-15T12:45:17.846Z,3.08
2023-03-15T12:47:47.702Z,2.67
2023-03-15T12:50:35.973Z,2.92
2023-03-15T12:53:12.934Z,2.20
2023-03-15T12:55:40.552Z,2.60
2023-03-15T12:58:11.559Z,2.22
2023-03-15T13:00:41.562Z,2.13
2023-03-15T13:03:16.340Z,1.85
2023-03-15T13:06:04.814Z,1.90
2023-03-15T13:08:33.217Z,2.45
2023-03-15T13:11:27.284Z,2.13
2023-03-15T13:14:12.236Z,2.85
2023-03-15T13:16:48.287Z,2.78
2023-03-15T13:19:28.730Z,2.75
2023-03-15T13:22:04.391Z,2.25
2023-03-15T13:24:45.367Z,2.22
2023-03-15T13:27:55.890Z,3.20
2023-03-15T13:30:33.182Z,3.42
2023-03-15T13:33:09.426Z,2.47
2023-03-15T13:35:48.449Z,2.72
2023-03-15T13:38:29.993Z,2.15
2023-03-15T13:41:04.605Z,2.72
2023-03-15T13:43:37.031Z,2.88
2023-03-15T13:46:04.149Z,2.55
2023-03-15T13:48:32.973Z,2.10
2023-03-15T13:51:14.174Z,2.13
2023-03-15T13:53:49.938Z,2.17
2023-03-15T13:56:20.848Z,2.03
2023-03-15T13:58:49.607Z,1.85
2023-03-15T14:01:17.166Z,1.35
2023-03-15T14:03:49.042Z,1.77
2023-03-15T14:06:23.781Z,1.70
2023-03-15T14:08:59.287Z,2.15
2023-03-15T14:11:25.584Z,1.85
2023-03-15T14:13:59.283Z,1.48
2023-03-15T14:16:57.320Z,1.27
2023-03-15T14:19:33.485Z,1.33
2023-03-15T14:22:26.009Z,1.40
2023-03-15T14:24:55.541Z,1.05
2023-03-15T14:27:28.292Z,1.60
2023-03-15T14:29:58.175Z,1.63
2023-03-15T14:32:34.345Z,1.88
2023-03-15T14:35:18.296Z,1.83
2023-03-15T14:37:45.748Z,2.05
2023-03-15T14:40:34.970Z,1.70
2023-03-15T14:43:06.528Z,2.17
2023-03-15T14:45:34.504Z,2.53
2023-03-15T14:48:08.451Z,2.72
2023-03-15T14:50:38.156Z,2.20
2023-03-15T14:53:07.305Z,2.53
2023-03-15T14:55:36.425Z,1.45
2023-03-15T14:58:09.543Z,3.05
2023-03-15T15:00:36.096Z,4.15
2023-03-15T15:03:06.668Z,2.35
2023-03-15T15:05:35.893Z,8.55
2023-03-15T15:08:14.251Z,3.65
2023-03-15T15:10:42.046Z,2.35
2023-03-15T15:13:23.017Z,1.52
2023-03-15T15:15:55.776Z,1.60
2023-03-15T15:18:25.350Z,1.85
2023-03-15T15:20:56.110Z,1.50
2023-03-15T15:23:28.768Z,1.50
2023-03-15T15:26:01.261Z,1.38
2023-03-15T15:28:37.534Z,2.15
2023-03-15T15:31:07.362Z,1.83
2023-03-15T15:33:34.698Z,1.73
2023-03-15T15:36:01.648Z,2.20
2023-03-15T15:38:34.654Z,2.00
2023-03-15T15:41:03.980Z,3.05
2023-03-15T15:43:33.422Z,2.30
2023-03-15T15:46:00.213Z,2.65
2023-03-15T15:48:29.220Z,2.75
2023-03-15T15:50:55.728Z,2.17
2023-03-15T15:53:22.777Z,1.95
2023-03-15T15:55:49.215Z,2.38
2023-03-15T15:58:17.430Z,3.28
2023-03-15T16:00:46.287Z,3.08
2023-03-15T16:03:16.872Z,2.25
2023-03-15T16:05:46.112Z,2.30
2023-03-15T16:08:22.971Z,2.40
2023-03-15T16:10:49.968Z,2.15
2023-03-15T16:13:17.051Z,2.63
2023-03-15T16:15:43.688Z,2.58
2023-03-15T16:18:11.156Z,2.88
2023-03-15T16:20:39.590Z,2.60
2023-03-15T16:23:06.319Z,2.78
2023-03-15T16:25:36.011Z,2.60
2023-03-15T16:28:04.194Z,2.53
2023-03-15T16:30:33.137Z,1.88
2023-03-15T16:32:59.608Z,2.15
2023-03-15T16:35:35.631Z,1.52
2023-03-15T16:38:06.316Z,2.08
2023-03-15T16:40:34.705Z,2.10
2023-03-15T16:43:01.580Z,2.33
2023-03-15T16:45:28.167Z,1.55
2023-03-15T16:47:56.295Z,1.88
2023-03-15T16:50:25.829Z,2.25
2023-03-15T16:52:55.352Z,1.40
2023-03-15T16:55:28.253Z,1.70
2023-03-15T16:57:55.274Z,2.15
2023-03-15T17:00:22.267Z,2.13
2023-03-15T17:02:54.493Z,2.38
2023-03-15T17:05:21.267Z,2.45
2023-03-15T17:07:49.811Z,2.17
2023-03-15T17:10:32.485Z,1.80
2023-03-15T17:13:01.639Z,2.80
2023-03-15T17:15:29.379Z,2.75
2023-03-15T17:17:57.605Z,2.05
2023-03-15T17:20:27.190Z,3.33
2023-03-15T17:22:57.018Z,2.60
2023-03-15T17:25:24.119Z,3.78
2023-03-15T17:27:53.585Z,3.65
2023-03-15T17:30:24.041Z,3.60
2023-03-15T17:32:54.929Z,4.22
2023-03-15T17:35:31.643Z,4.15
2023-03-15T17:37:58.151Z,3.78
2023-03-15T17:40:30.233Z,3.00
2023-03-15T17:43:01.037Z,2.53
2023-03-15T17:45:30.968Z,3.47
2023-03-15T17:47:58.315Z,3.30
2023-03-15T17:50:27.450Z,4.00
2023-03-15T17:52:56.685Z,5.25
2023-03-15T17:55:28.641Z,6.43
2023-03-15T17:57:55.825Z,7.82
2023-03-15T18:00:23.918Z,7.93
2023-03-15T18:02:58.822Z,6.93
2023-03-15T18:05:27.947Z,6.22
2023-03-15T18:07:58.946Z,5.97
2023-03-15T18:10:31.491Z,6.20
2023-03-15T18:13:00.630Z,6.82
2023-03-15T18:15:27.035Z,6.70
2023-03-15T18:17:53.511Z,6.53
2023-03-15T18:20:22.224Z,5.88
2023-03-15T18:22:48.887Z,5.97
2023-03-15T18:25:28.029Z,6.10
2023-03-15T18:27:57.282Z,4.75
2023-03-15T18:30:25.893Z,4.15
2023-03-15T18:32:56.762Z,4.53
2023-03-15T18:35:41.475Z,4.03
2023-03-15T18:38:07.941Z,4.47
2023-03-15T18:40:34.757Z,4.30
2023-03-15T18:43:02.089Z,5.78
2023-03-15T18:45:31.226Z,34.97
2023-03-15T18:47:59.835Z,19.45
2023-03-15T18:50:26.916Z,13.13
2023-03-15T18:52:53.416Z,10.20
2023-03-15T18:55:22.172Z,8.57
2023-03-15T18:57:49.989Z,8.10
2023-03-15T19:00:25.825Z,7.53
2023-03-15T19:02:57.081Z,7.63
2023-03-15T19:05:27.093Z,6.10
2023-03-15T19:07:53.889Z,5.05
2023-03-15T19:10:22.122Z,5.22
2023-03-15T19:12:53.149Z,4.78
2023-03-15T19:15:21.645Z,5.57
2023-03-15T19:17:51.075Z,4.97
2023-03-15T19:20:21.581Z,5.60
2023-03-15T19:22:55.267Z,6.13
2023-03-15T19:25:21.866Z,5.57
2023-03-15T19:27:50.888Z,4.20
2023-03-15T19:30:21.123Z,4.10
2023-03-15T19:32:48.377Z,3.72
2023-03-15T19:35:15.072Z,3.58
2023-03-15T19:37:44.483Z,4.57
2023-03-15T19:40:12.918Z,4.40
2023-03-15T19:42:39.521Z,5.18
2023-03-15T19:45:06.611Z,5.80
2023-03-15T19:47:33.169Z,6.13
2023-03-15T19:49:59.884Z,6.10
2023-03-15T19:52:27.891Z,6.50
2023-03-15T19:54:54.934Z,7.15
2023-03-15T19:57:21.645Z,8.02
2023-03-15T19:59:48.123Z,7.22
2023-03-15T20:02:14.562Z,6.40
2023-03-15T20:04:41.441Z,6.75
2023-03-15T20:07:11.042Z,7.20
2023-03-15T20:09:38.981Z,5.78
2023-03-15T20:12:11.107Z,5.60
2023-03-15T20:14:42.506Z,5.00
2023-03-15T20:17:09.078Z,4.18
2023-03-15T20:19:36.284Z,4.72
2023-03-15T20:22:02.973Z,5.50
2023-03-15T20:24:29.404Z,5.40
2023-03-15T20:26:56.604Z,5.82
2023-03-15T20:29:23.222Z,6.75
2023-03-15T20:31:50.898Z,8.15
2023-03-15T20:34:19.798Z,6.25
2023-03-15T20:36:46.184Z,7.45
2023-03-15T20:39:12.719Z,9.40
2023-03-15T20:41:39.382Z,8.20
2023-03-15T20:44:06.399Z,7.85
2023-03-15T20:46:33.279Z,8.90
2023-03-15T20:48:59.921Z,8.70
2023-03-15T20:51:26.597Z,8.05
2023-03-15T20:53:53.061Z,8.27
2023-03-15T20:56:19.560Z,8.88
2023-03-15T20:58:48.367Z,9.07
2023-03-15T21:01:17.469Z,8.40
2023-03-15T21:03:45.189Z,8.57
2023-03-15T21:06:15.020Z,8.75
2023-03-15T21:08:42.321Z,8.00
2023-03-15T21:11:09.403Z,7.05
2023-03-15T21:13:36.052Z,8.48
2023-03-15T21:16:05.352Z,7.40
2023-03-15T21:18:33.480Z,6.63
2023-03-15T21:21:03.060Z,6.05
2023-03-15T21:23:33.688Z,6.28
2023-03-15T21:26:03.431Z,8.57
2023-03-15T21:28:31.083Z,8.68
2023-03-15T21:30:58.407Z,5.72
2023-03-15T21:33:26.853Z,4.75
2023-03-15T21:35:53.968Z,4.63
2023-03-15T21:38:21.125Z,4.70
2023-03-15T21:40:52.581Z,4.35
2023-03-15T21:43:19.087Z,3.85
2023-03-15T21:45:46.098Z,4.20
2023-03-15T21:48:12.617Z,4.03
2023-03-15T21:50:39.014Z,3.72
2023-03-15T21:53:05.627Z,4.25
2023-03-15T21:55:33.705Z,3.38
2023-03-15T21:58:01.815Z,4.28
2023-03-15T22:00:32.526Z,2.83
2023-03-15T22:02:59.052Z,3.80
2023-03-15T22:05:25.455Z,4.13
2023-03-15T22:07:51.897Z,4.15
2023-03-15T22:10:19.754Z,4.20
2023-03-15T22:12:46.333Z,3.80
2023-03-15T22:15:17.759Z,3.95
2023-03-15T22:17:45.997Z,4.30
2023-03-15T22:20:16.608Z,4.13
2023-03-15T22:22:47.798Z,4.65
2023-03-15T22:25:14.691Z,4.78
2023-03-15T22:27:41.850Z,4.32
2023-03-15T22:30:13.566Z,5.13
2023-03-15T22:32:44.737Z,5.45
2023-03-15T22:35:13.615Z,7.35
2023-03-15T22:37:40.852Z,6.97
2023-03-15T22:40:14.024Z,7.47
2023-03-15T22:42:42.115Z,7.97
2023-03-15T22:45:11.160Z,6.88
2023-03-15T22:47:37.565Z,6.50
2023-03-15T22:50:04.303Z,7.22
2023-03-15T22:52:30.689Z,6.60
2023-03-15T22:54:57.380Z,7.35
2023-03-15T22:57:23.984Z,6.57
2023-03-15T22:59:50.391Z,5.78
2023-03-15T23:02:16.880Z,5.72
2023-03-15T23:04:45.187Z,5.93
2023-03-15T23:07:12.180Z,6.78
2023-03-15T23:09:40.966Z,5.78
2023-03-15T23:12:07.947Z,6.15
2023-03-15T23:14:35.165Z,6.03
2023-03-15T23:17:04.347Z,7.38
2023-03-15T23:19:36.079Z,6.85
2023-03-15T23:22:06.582Z,7.50
2023-03-15T23:24:38.455Z,5.95
2023-03-15T23:27:04.974Z,6.45
2023-03-15T23:29:38.061Z,6.05
2023-03-15T23:32:10.640Z,6.53
2023-03-15T23:34:42.880Z,5.40
2023-03-15T23:37:10.545Z,5.65
2023-03-15T23:39:39.619Z,5.60
2023-03-15T23:42:06.865Z,5.60
2023-03-15T23:44:33.746Z,5.10
2023-03-15T23:47:00.353Z,6.07
2023-03-15T23:49:26.804Z,5.53
2023-03-15T23:51:56.978Z,5.18
2023-03-15T23:54:23.825Z,6.18
2023-03-15T23:56:50.610Z,6.28
2023-03-15T23:59:17.377Z,6.25
